Terminal Aerodrome Forecast
Issued by NWS

Home | Current Version | Previous Version | Text Only | Print | Product List | Glossary On
Versions: 1 2 3 4 5 6 7 8 9 10 11 12 13 14
000
FTUS45 KGJT 161732
TAFASE
TAF
KASE 161732Z 1618/1718 VRB04KT P6SM SCT150
     FM162200 30010KT P6SM VCSH SCT100
     FM170100 27006KT P6SM SCT100
     FM170400 19004KT P6SM SCT200=

USA.gov is the U.S. government's official web portal to all federal, state and local government web resources and services.